createdAt,value
2022-09-12T00:00:44.234Z,12.6
2022-09-12T00:01:52.624Z,12.6
2022-09-12T00:03:00.901Z,12.6
2022-09-12T00:04:09.438Z,12.3
2022-09-12T00:05:17.762Z,12.3
2022-09-12T00:06:26.136Z,12.3
2022-09-12T00:07:34.630Z,12.5
2022-09-12T00:08:42.947Z,12.5
2022-09-12T00:09:51.283Z,12.5
2022-09-12T00:10:59.803Z,11.9
2022-09-12T00:12:08.132Z,11.9
2022-09-12T00:13:16.462Z,11.9
2022-09-12T00:14:24.990Z,12.4
2022-09-12T00:15:33.322Z,12.4
2022-09-12T00:16:41.739Z,12.4
2022-09-12T00:17:50.185Z,11.7
2022-09-12T00:18:58.506Z,11.7
2022-09-12T00:20:06.819Z,11.7
2022-09-12T00:21:15.346Z,12.3
2022-09-12T00:22:23.692Z,12.3
2022-09-12T00:23:32.002Z,12.3
2022-09-12T00:24:40.519Z,11.6
2022-09-12T00:25:48.838Z,11.6
2022-09-12T00:26:57.175Z,11.6
2022-09-12T00:28:05.706Z,12.1
2022-09-12T00:29:14.029Z,12.1
2022-09-12T00:30:22.349Z,12.1
2022-09-12T00:31:30.908Z,13
2022-09-12T00:32:39.206Z,13
2022-09-12T00:33:47.530Z,13
2022-09-12T00:34:56.061Z,12.6
2022-09-12T00:36:04.384Z,12.6
2022-09-12T00:37:12.710Z,12.6
2022-09-12T00:38:21.257Z,11.8
2022-09-12T00:39:29.547Z,11.8
2022-09-12T00:40:37.883Z,11.8
2022-09-12T00:41:46.414Z,12.7
2022-09-12T00:42:54.727Z,12.7
2022-09-12T00:44:03.046Z,12.7
2022-09-12T00:45:11.570Z,12.8
2022-09-12T00:46:19.903Z,12.8
2022-09-12T00:47:28.236Z,12.8
2022-09-12T00:48:36.767Z,12
2022-09-12T00:49:45.087Z,12
2022-09-12T00:50:53.416Z,12
2022-09-12T00:52:01.964Z,11.7
2022-09-12T00:53:10.283Z,11.7
2022-09-12T00:54:18.618Z,11.7
2022-09-12T00:55:27.118Z,12.7
2022-09-12T00:56:35.440Z,12.7
2022-09-12T00:57:43.762Z,12.7
2022-09-12T00:58:52.305Z,12
2022-09-12T01:00:00.614Z,12
2022-09-12T01:01:09.060Z,12
2022-09-12T01:02:17.532Z,12.2
2022-09-12T01:03:25.801Z,12.2
2022-09-12T01:04:34.115Z,12.2
2022-09-12T01:05:42.666Z,12.6
2022-09-12T01:06:50.986Z,12.6
2022-09-12T01:07:59.870Z,12.6
2022-09-12T01:09:08.407Z,11.4
2022-09-12T01:10:16.770Z,11.4
2022-09-12T01:11:25.063Z,11.4
2022-09-12T01:12:33.604Z,13
2022-09-12T01:13:41.926Z,13
2022-09-12T01:14:50.271Z,13
2022-09-12T01:15:58.787Z,12.4
2022-09-12T01:17:07.102Z,12.4
2022-09-12T01:18:15.414Z,12.4
2022-09-12T01:19:23.947Z,12.2
2022-09-12T01:20:32.283Z,12.2
2022-09-12T01:21:40.607Z,12.2
2022-09-12T01:22:49.146Z,12.8
2022-09-12T01:23:57.468Z,12.8
2022-09-12T01:25:05.790Z,12.8
2022-09-12T01:26:14.348Z,13
2022-09-12T01:27:22.665Z,13
2022-09-12T01:28:30.983Z,13
2022-09-12T01:29:39.505Z,12.1
2022-09-12T01:30:47.841Z,12.1
2022-09-12T01:31:56.257Z,12.1
2022-09-12T01:33:04.705Z,12.5
2022-09-12T01:34:13.033Z,12.5
2022-09-12T01:35:21.368Z,12.5
2022-09-12T01:36:29.892Z,12
2022-09-12T01:37:38.225Z,12
2022-09-12T01:38:46.651Z,12
2022-09-12T01:39:55.121Z,11.9
2022-09-12T01:41:03.390Z,11.9
2022-09-12T01:42:11.736Z,11.9
2022-09-12T01:43:20.242Z,12.3
2022-09-12T01:44:28.585Z,12.3
2022-09-12T01:45:36.987Z,12.3
2022-09-12T01:46:45.433Z,13.1
2022-09-12T01:47:53.769Z,13.1
2022-09-12T01:49:02.092Z,13.1
2022-09-12T01:50:10.633Z,13
2022-09-12T01:51:18.959Z,13
2022-09-12T01:52:27.303Z,13
2022-09-12T01:53:35.793Z,13.2
2022-09-12T01:54:44.121Z,13.2
2022-09-12T01:55:52.447Z,13.2
2022-09-12T01:57:00.981Z,13
2022-09-12T01:58:09.318Z,13
2022-09-12T01:59:17.615Z,13
2022-09-12T02:00:26.151Z,13.9
2022-09-12T02:01:34.539Z,13.9
2022-09-12T02:02:42.808Z,13.9
2022-09-12T02:03:51.325Z,13.2
2022-09-12T02:04:59.655Z,13.2
2022-09-12T02:06:07.968Z,13.2
2022-09-12T02:07:16.509Z,13.2
2022-09-12T02:08:24.830Z,13.2
2022-09-12T02:09:33.159Z,13.2
2022-09-12T02:10:41.693Z,13.1
2022-09-12T02:11:50.006Z,13.1
2022-09-12T02:12:58.322Z,13.1
2022-09-12T02:14:06.877Z,12.7
2022-09-12T02:15:15.186Z,12.7
2022-09-12T02:16:23.515Z,12.7
2022-09-12T02:17:32.018Z,12.5
2022-09-12T02:18:40.343Z,12.5
2022-09-12T02:19:48.674Z,12.5
2022-09-12T02:20:57.198Z,13
2022-09-12T02:22:05.511Z,13
2022-09-12T02:23:13.834Z,13
2022-09-12T02:24:22.358Z,13.2
2022-09-12T02:25:30.691Z,13.2
2022-09-12T02:26:39.034Z,13.2
2022-09-12T02:27:47.533Z,12.3
2022-09-12T02:28:55.877Z,12.3
2022-09-12T02:30:04.229Z,12.3
2022-09-12T02:31:12.735Z,12.3
2022-09-12T02:32:21.049Z,12.3
2022-09-12T02:33:29.372Z,12.3
2022-09-12T02:34:37.909Z,12.9
2022-09-12T02:35:46.266Z,12.9
2022-09-12T02:36:54.556Z,12.9
2022-09-12T02:38:03.085Z,12.1
2022-09-12T02:39:11.393Z,12.1
2022-09-12T02:40:19.784Z,12.1
2022-09-12T02:41:28.272Z,12.5
2022-09-12T02:42:36.623Z,12.5
2022-09-12T02:43:44.936Z,12.5
2022-09-12T02:44:53.468Z,11.5
2022-09-12T02:46:01.910Z,11.5
2022-09-12T02:47:10.107Z,11.5
2022-09-12T02:48:18.635Z,12.3
2022-09-12T02:49:26.964Z,12.3
2022-09-12T02:50:35.286Z,12.3
2022-09-12T02:51:43.806Z,11
2022-09-12T02:52:52.133Z,11
2022-09-12T02:54:00.454Z,11
2022-09-12T02:55:08.980Z,12.7
2022-09-12T02:56:17.299Z,12.7
2022-09-12T02:57:25.619Z,12.7
2022-09-12T02:58:34.150Z,13
2022-09-12T02:59:42.478Z,13
2022-09-12T03:00:50.852Z,13
2022-09-12T03:01:59.381Z,11.7
2022-09-12T03:03:07.643Z,11.7
2022-09-12T03:04:15.978Z,11.7
2022-09-12T03:05:24.508Z,11.9
2022-09-12T03:06:32.820Z,11.9
2022-09-12T03:07:41.144Z,11.9
2022-09-12T03:08:49.681Z,12.1
2022-09-12T03:09:58.020Z,12.1
2022-09-12T03:11:06.339Z,12.1
2022-09-12T03:12:14.859Z,11.7
2022-09-12T03:13:23.193Z,11.7
2022-09-12T03:14:31.530Z,11.7
2022-09-12T03:15:40.040Z,11.4
2022-09-12T03:16:48.418Z,11.4
2022-09-12T03:17:56.714Z,11.4
2022-09-12T03:19:05.206Z,11.4
2022-09-12T03:20:13.539Z,11.4
2022-09-12T03:21:21.869Z,11.4
2022-09-12T03:22:30.377Z,10.4
2022-09-12T03:23:38.697Z,10.4
2022-09-12T03:24:47.029Z,10.4
2022-09-12T03:25:55.570Z,10.6
2022-09-12T03:27:03.903Z,10.6
2022-09-12T03:28:12.231Z,10.6
2022-09-12T03:29:20.774Z,11.2
2022-09-12T03:30:29.161Z,11.2
2022-09-12T03:31:37.447Z,11.2
2022-09-12T03:32:45.973Z,11.5
2022-09-12T03:33:54.314Z,11.5
2022-09-12T03:35:02.626Z,11.5
2022-09-12T03:36:11.159Z,11.1
2022-09-12T03:37:19.471Z,11.1
2022-09-12T03:38:27.784Z,11.1
2022-09-12T03:39:36.309Z,11
2022-09-12T03:40:44.634Z,11
2022-09-12T03:41:52.971Z,11
2022-09-12T03:43:01.499Z,12.2
2022-09-12T03:44:09.823Z,12.2
2022-09-12T03:45:18.157Z,12.2
2022-09-12T03:46:26.690Z,10.7
2022-09-12T03:47:35.013Z,10.7
2022-09-12T03:48:43.404Z,10.7
2022-09-12T03:49:51.932Z,11.7
2022-09-12T03:51:00.222Z,11.7
2022-09-12T03:52:08.548Z,11.7
2022-09-12T03:53:17.538Z,11.4
2022-09-12T03:54:25.414Z,11.4
2022-09-12T03:55:33.727Z,11.4
2022-09-12T03:56:42.252Z,11.8
2022-09-12T03:57:50.575Z,11.8
2022-09-12T03:58:58.897Z,11.8
2022-09-12T04:00:07.420Z,11.8
2022-09-12T04:01:15.796Z,11.8
2022-09-12T04:02:24.111Z,11.8
2022-09-12T04:03:32.622Z,11.3
2022-09-12T04:04:40.936Z,11.3
2022-09-12T04:05:49.286Z,11.3
2022-09-12T04:06:57.805Z,10.5
2022-09-12T04:08:06.134Z,10.5
2022-09-12T04:09:14.466Z,10.5
2022-09-12T04:10:23.001Z,10.4
2022-09-12T04:11:31.309Z,10.4
2022-09-12T04:12:39.663Z,10.4
2022-09-12T04:13:48.187Z,10.8
2022-09-12T04:14:56.498Z,10.8
2022-09-12T04:16:04.812Z,10.8
2022-09-12T04:17:13.335Z,10.9
2022-09-12T04:18:21.683Z,10.9
2022-09-12T04:19:30.002Z,10.9
2022-09-12T04:20:38.524Z,11.1
2022-09-12T04:21:46.861Z,11.1
2022-09-12T04:22:55.151Z,11.1
2022-09-12T04:24:03.679Z,11.8
2022-09-12T04:25:12.012Z,11.8
2022-09-12T04:26:20.326Z,11.8
2022-09-12T04:27:28.854Z,10.7
2022-09-12T04:28:37.197Z,10.7
2022-09-12T04:29:45.508Z,10.7
2022-09-12T04:30:54.076Z,10.7
2022-09-12T04:32:02.343Z,10.7
2022-09-12T04:33:10.680Z,10.7
2022-09-12T04:34:19.202Z,12.7
2022-09-12T04:35:27.526Z,12.7
2022-09-12T04:36:35.835Z,12.7
2022-09-12T04:37:44.393Z,14.1
2022-09-12T04:38:52.698Z,14.1
2022-09-12T04:40:01.130Z,14.1
2022-09-12T04:41:09.579Z,14.4
2022-09-12T04:42:17.901Z,14.4
2022-09-12T04:43:26.238Z,14.4
2022-09-12T04:44:34.764Z,14.8
2022-09-12T04:45:43.101Z,14.8
2022-09-12T04:46:51.405Z,14.8
2022-09-12T04:47:59.942Z,13.9
2022-09-12T04:49:08.267Z,13.9
2022-09-12T04:50:16.587Z,13.9
2022-09-12T04:51:25.123Z,13.8
2022-09-12T04:52:33.467Z,13.8
2022-09-12T04:53:41.879Z,13.8
2022-09-12T04:54:50.404Z,11.2
2022-09-12T04:55:58.696Z,11.2
2022-09-12T04:57:07.036Z,11.2
2022-09-12T04:58:15.579Z,11.7
2022-09-12T04:59:23.899Z,11.7
2022-09-12T05:00:32.212Z,11.7
2022-09-12T05:01:40.773Z,11.4
2022-09-12T05:02:49.064Z,11.4
2022-09-12T05:03:57.409Z,11.4
2022-09-12T05:05:05.957Z,68.400002
2022-09-12T05:06:14.289Z,68.400002
2022-09-12T05:07:22.607Z,68.400002
2022-09-12T05:08:31.168Z,12.8
2022-09-12T05:09:39.524Z,12.8
2022-09-12T05:10:47.827Z,12.8
2022-09-12T05:12:04.843Z,11.5
2022-09-12T05:13:04.723Z,11.5
2022-09-12T05:14:13.049Z,11.5
2022-09-12T05:15:21.600Z,11.3
2022-09-12T05:16:29.984Z,11.3
2022-09-12T05:17:38.282Z,11.3
2022-09-12T05:18:46.940Z,10.9
2022-09-12T05:19:55.123Z,10.9
2022-09-12T05:21:03.447Z,10.9
2022-09-12T05:22:11.975Z,11.7
2022-09-12T05:23:20.347Z,11.7
2022-09-12T05:24:28.678Z,11.7
2022-09-12T05:25:37.233Z,11.5
2022-09-12T05:26:45.535Z,11.5
2022-09-12T05:27:53.874Z,11.5
2022-09-12T05:29:02.403Z,11.6
2022-09-12T05:30:10.726Z,11.6
2022-09-12T05:31:19.060Z,11.6
2022-09-12T05:32:27.584Z,14
2022-09-12T05:33:35.905Z,14
2022-09-12T05:34:44.237Z,14
2022-09-12T05:35:52.747Z,17
2022-09-12T05:37:01.058Z,17
2022-09-12T05:38:09.381Z,17
2022-09-12T05:39:17.907Z,16
2022-09-12T05:40:26.223Z,16
2022-09-12T05:41:34.590Z,16
2022-09-12T05:42:43.117Z,15.1
2022-09-12T05:43:51.434Z,15.1
2022-09-12T05:44:59.763Z,15.1
2022-09-12T05:46:08.359Z,15.1
2022-09-12T05:47:16.638Z,15.1
2022-09-12T05:48:24.986Z,15.1
2022-09-12T05:49:33.532Z,14.3
2022-09-12T05:50:41.973Z,14.3
2022-09-12T05:51:50.268Z,14.3
2022-09-12T05:52:58.777Z,13.7
2022-09-12T05:54:07.111Z,13.7
2022-09-12T05:55:15.430Z,13.7
2022-09-12T05:56:23.967Z,13.3
2022-09-12T05:57:32.320Z,13.3
2022-09-12T05:58:40.636Z,13.3
2022-09-12T05:59:49.155Z,12.9
2022-09-12T06:00:57.473Z,12.9
2022-09-12T06:02:05.833Z,12.9
2022-09-12T06:03:14.342Z,12.6
2022-09-12T06:04:22.665Z,12.6
2022-09-12T06:05:30.976Z,12.6
2022-09-12T06:06:39.504Z,13.3
2022-09-12T06:07:47.822Z,13.3
2022-09-12T06:08:56.139Z,13.3
2022-09-12T06:10:04.670Z,14
2022-09-12T06:11:12.982Z,14
2022-09-12T06:12:21.302Z,14
2022-09-12T06:13:29.865Z,11.7
2022-09-12T06:14:38.158Z,11.7
2022-09-12T06:15:46.500Z,11.7
2022-09-12T06:16:55.086Z,11.9
2022-09-12T06:18:03.362Z,11.9
2022-09-12T06:19:11.686Z,11.9
2022-09-12T06:20:20.213Z,14.1
2022-09-12T06:21:28.548Z,14.1
2022-09-12T06:22:36.891Z,14.1
2022-09-12T06:23:45.414Z,13
2022-09-12T06:24:57.352Z,13
2022-09-12T06:26:02.060Z,13
2022-09-12T06:27:10.602Z,13.8
2022-09-12T06:28:18.929Z,13.8
2022-09-12T06:29:27.264Z,13.8
2022-09-12T06:30:35.850Z,14.7
2022-09-12T06:31:44.122Z,14.7
2022-09-12T06:32:52.456Z,14.7
2022-09-12T06:34:00.997Z,16.1
2022-09-12T06:35:09.320Z,16.1
2022-09-12T06:36:17.631Z,16.1
2022-09-12T06:37:26.176Z,15.3
2022-09-12T06:38:34.496Z,15.3
2022-09-12T06:39:42.862Z,15.3
2022-09-12T06:40:51.348Z,15.7
2022-09-12T06:41:59.687Z,15.7
2022-09-12T06:43:07.987Z,15.7
2022-09-12T06:44:16.533Z,15.1
2022-09-12T06:45:24.897Z,15.1
2022-09-12T06:46:33.213Z,15.1
2022-09-12T06:47:41.746Z,15.6
2022-09-12T06:48:50.087Z,15.6
2022-09-12T06:49:58.393Z,15.6
2022-09-12T06:51:06.920Z,15.1
2022-09-12T06:52:15.257Z,15.1
2022-09-12T06:53:23.592Z,15.1
2022-09-12T06:54:32.105Z,15.6
2022-09-12T06:55:40.439Z,15.6
2022-09-12T06:56:48.776Z,15.6
2022-09-12T06:57:57.322Z,15.9
2022-09-12T06:59:05.628Z,15.9
2022-09-12T07:00:13.959Z,15.9
2022-09-12T07:01:22.561Z,15.6
2022-09-12T07:02:30.894Z,15.6
2022-09-12T07:03:39.175Z,15.6
2022-09-12T07:04:47.695Z,16.6
2022-09-12T07:05:56.026Z,16.6
2022-09-12T07:07:04.348Z,16.6
2022-09-12T07:08:12.890Z,15.8
2022-09-12T07:09:21.220Z,15.8
2022-09-12T07:10:29.535Z,15.8
2022-09-12T07:11:38.092Z,14
2022-09-12T07:12:46.398Z,14
2022-09-12T07:13:54.746Z,14
2022-09-12T07:15:03.281Z,14.5
2022-09-12T07:16:13.844Z,14.5
2022-09-12T07:17:19.984Z,14.5
2022-09-12T07:18:29.102Z,14.4
2022-09-12T07:19:36.857Z,14.4
2022-09-12T07:20:45.177Z,14.4
2022-09-12T07:21:57.995Z,13.7
2022-09-12T07:23:02.047Z,13.7
2022-09-12T07:24:10.580Z,13.7
2022-09-12T07:25:18.919Z,13.4
2022-09-12T07:26:27.244Z,13.4
2022-09-12T07:27:35.564Z,13.4
2022-09-12T07:28:44.085Z,13.7
2022-09-12T07:29:52.418Z,13.7
2022-09-12T07:31:00.804Z,13.7
2022-09-12T07:32:09.295Z,13.1
2022-09-12T07:33:17.653Z,13.1
2022-09-12T07:34:25.955Z,13.1
2022-09-12T07:35:34.498Z,12.3
2022-09-12T07:36:42.861Z,12.3
2022-09-12T07:37:51.188Z,12.3
2022-09-12T07:38:59.709Z,12.4
2022-09-12T07:40:08.052Z,12.4
2022-09-12T07:41:16.345Z,12.4
2022-09-12T07:42:24.891Z,12.4
2022-09-12T07:43:33.202Z,12.4
2022-09-12T07:44:41.531Z,12.4
2022-09-12T07:45:50.104Z,11.6
2022-09-12T07:46:58.419Z,11.6
2022-09-12T07:48:06.757Z,11.6
2022-09-12T07:49:15.310Z,11.7
2022-09-12T07:50:23.622Z,11.7
2022-09-12T07:51:31.948Z,11.7
2022-09-12T07:52:40.495Z,10.7
2022-09-12T07:53:48.795Z,10.7
2022-09-12T07:54:57.117Z,10.7
2022-09-12T07:56:05.665Z,11.7
2022-09-12T07:57:13.975Z,11.7
2022-09-12T07:58:22.293Z,11.7
2022-09-12T07:59:51.179Z,11.9
2022-09-12T08:00:39.201Z,11.9
2022-09-12T08:01:47.528Z,11.9
2022-09-12T08:02:56.105Z,11.5
2022-09-12T08:04:04.409Z,11.5
2022-09-12T08:05:12.780Z,11.5
2022-09-12T08:06:21.304Z,11.3
2022-09-12T08:07:29.644Z,11.3
2022-09-12T08:08:37.959Z,11.3
2022-09-12T08:09:46.510Z,11.6
2022-09-12T08:10:54.865Z,11.6
2022-09-12T08:12:03.184Z,11.6
2022-09-12T08:13:11.707Z,12.4
2022-09-12T08:14:20.024Z,12.4
2022-09-12T08:15:28.366Z,12.4
2022-09-12T08:16:36.916Z,11.3
2022-09-12T08:17:45.238Z,11.3
2022-09-12T08:18:53.547Z,11.3
2022-09-12T08:20:02.075Z,11.8
2022-09-12T08:21:10.428Z,11.8
2022-09-12T08:22:18.713Z,11.8
2022-09-12T08:23:27.244Z,11.7
2022-09-12T08:24:35.566Z,11.7
2022-09-12T08:25:43.905Z,11.7
2022-09-12T08:26:52.458Z,12.7
2022-09-12T08:28:00.780Z,12.7
2022-09-12T08:29:09.102Z,12.7
2022-09-12T08:30:17.644Z,11.9
2022-09-12T08:31:25.966Z,11.9
2022-09-12T08:32:34.306Z,11.9
2022-09-12T08:33:42.887Z,12.6
2022-09-12T08:34:51.176Z,12.6
2022-09-12T08:35:59.544Z,12.6
2022-09-12T08:37:08.118Z,12.7
2022-09-12T08:38:16.420Z,12.7
2022-09-12T08:39:24.752Z,12.7
2022-09-12T08:40:33.280Z,13.4
2022-09-12T08:41:41.602Z,13.4
2022-09-12T08:42:49.906Z,13.4
2022-09-12T08:43:58.437Z,13
2022-09-12T08:45:06.781Z,13
2022-09-12T08:46:15.130Z,13
2022-09-12T08:47:23.633Z,14.1
2022-09-12T08:48:31.956Z,14.1
2022-09-12T08:49:40.282Z,14.1
2022-09-12T08:50:49.774Z,13.4
2022-09-12T08:51:57.233Z,13.4
2022-09-12T08:53:05.567Z,13.4
2022-09-12T08:54:14.089Z,13.6
2022-09-12T08:55:22.450Z,13.6
2022-09-12T08:56:31.730Z,13.6
2022-09-12T08:57:39.327Z,12
2022-09-12T08:58:47.641Z,12
2022-09-12T08:59:55.992Z,12
2022-09-12T09:01:04.586Z,13.2
2022-09-12T09:02:12.962Z,13.2
2022-09-12T09:03:21.234Z,13.2
2022-09-12T09:04:29.774Z,12.6
2022-09-12T09:05:38.105Z,12.6
2022-09-12T09:06:46.432Z,12.6
2022-09-12T09:07:54.950Z,11.8
2022-09-12T09:09:03.309Z,11.8
2022-09-12T09:10:11.622Z,11.8
2022-09-12T09:11:20.134Z,12.5
2022-09-12T09:12:28.506Z,12.5
2022-09-12T09:13:36.809Z,12.5
2022-09-12T09:14:45.381Z,11.5
2022-09-12T09:15:53.759Z,11.5
2022-09-12T09:17:02.005Z,11.5
2022-09-12T09:18:10.561Z,9.9
2022-09-12T09:19:18.894Z,9.9
2022-09-12T09:20:27.225Z,9.9
2022-09-12T09:21:35.753Z,11.4
2022-09-12T09:22:44.101Z,11.4
2022-09-12T09:23:52.466Z,11.4
2022-09-12T09:25:01.054Z,11.4
2022-09-12T09:26:09.366Z,11.4
2022-09-12T09:27:37.226Z,11.4
2022-09-12T09:28:26.269Z,11.1
2022-09-12T09:29:34.642Z,11.1
2022-09-12T09:30:42.978Z,11.1
2022-09-12T09:31:51.495Z,11.6
2022-09-12T09:32:59.839Z,11.6
2022-09-12T09:34:08.171Z,11.6
2022-09-12T09:35:16.750Z,10.9
2022-09-12T09:36:25.083Z,10.9
2022-09-12T09:37:33.421Z,10.9
2022-09-12T09:38:41.994Z,9.8
2022-09-12T09:39:50.340Z,9.8
2022-09-12T09:40:58.721Z,9.8
2022-09-12T09:42:07.274Z,10
2022-09-12T09:43:15.595Z,10
2022-09-12T09:44:23.925Z,10
2022-09-12T09:45:32.466Z,10.4
2022-09-12T09:46:40.793Z,10.4
2022-09-12T09:47:49.117Z,10.4
2022-09-12T09:48:57.641Z,9.2
2022-09-12T09:50:06.621Z,9.2
2022-09-12T09:51:14.951Z,9.2
2022-09-12T09:52:23.495Z,8.2
2022-09-12T09:53:31.821Z,8.2
2022-09-12T09:54:40.196Z,8.2
2022-09-12T09:55:48.732Z,9.3
2022-09-12T09:56:57.117Z,9.3
2022-09-12T09:58:05.412Z,9.3
2022-09-12T09:59:13.979Z,8.9
2022-09-12T10:00:22.354Z,8.9
2022-09-12T10:01:30.712Z,8.9
2022-09-12T10:02:39.242Z,6.9
2022-09-12T10:03:47.684Z,6.9
2022-09-12T10:04:55.936Z,6.9
2022-09-12T10:06:04.486Z,7
2022-09-12T10:07:12.837Z,7
2022-09-12T10:08:21.167Z,7
2022-09-12T10:09:29.739Z,7.1
2022-09-12T10:10:38.061Z,7.1
2022-09-12T10:11:46.415Z,7.1
2022-09-12T10:12:54.972Z,6.7
2022-09-12T10:14:03.281Z,6.7
2022-09-12T10:15:11.640Z,6.7
2022-09-12T10:16:20.324Z,5.9
2022-09-12T10:17:31.901Z,5.9
2022-09-12T10:18:36.905Z,5.9
2022-09-12T10:19:49.824Z,2.8
2022-09-12T10:20:53.776Z,2.8
2022-09-12T10:22:02.098Z,2.8
2022-09-12T10:23:10.655Z,2.8
2022-09-12T10:24:19.009Z,2.8
2022-09-12T10:25:27.348Z,2.8
2022-09-12T10:26:35.861Z,5.3
2022-09-12T10:27:44.212Z,5.3
2022-09-12T10:28:52.572Z,5.3
2022-09-12T10:30:01.132Z,4.4
2022-09-12T10:31:09.501Z,4.4
2022-09-12T10:32:17.780Z,4.4
2022-09-12T10:33:26.333Z,4.8
2022-09-12T10:34:34.628Z,4.8
2022-09-12T10:35:43.011Z,4.8
2022-09-12T10:36:51.557Z,4.1
2022-09-12T10:37:59.923Z,4.1
2022-09-12T10:39:08.213Z,4.1
2022-09-12T10:40:16.785Z,4.8
2022-09-12T10:41:25.054Z,4.8
2022-09-12T10:42:33.370Z,4.8
2022-09-12T10:43:41.930Z,4.7
2022-09-12T10:44:50.252Z,4.7
2022-09-12T10:45:58.640Z,4.7
2022-09-12T10:47:07.108Z,4.3
2022-09-12T10:48:15.447Z,4.3
2022-09-12T10:49:23.772Z,4.3
2022-09-12T10:50:32.302Z,5.3
2022-09-12T10:51:40.621Z,5.3
2022-09-12T10:52:48.952Z,5.3
2022-09-12T10:53:57.469Z,4
2022-09-12T10:55:05.796Z,4
2022-09-12T10:56:14.113Z,4
2022-09-12T10:57:22.652Z,4.1
2022-09-12T10:58:31.534Z,4.1
2022-09-12T10:59:39.850Z,4.1
2022-09-12T11:00:48.452Z,4.2
2022-09-12T11:01:56.748Z,4.2
2022-09-12T11:03:05.075Z,4.2
2022-09-12T11:04:13.608Z,3.9
2022-09-12T11:05:22.785Z,3.9
2022-09-12T11:06:30.255Z,3.9
2022-09-12T11:07:38.767Z,3.6
2022-09-12T11:08:47.103Z,3.6
2022-09-12T11:09:55.422Z,3.6
2022-09-12T11:11:03.972Z,3.9
2022-09-12T11:12:12.311Z,3.9
2022-09-12T11:13:20.629Z,3.9
2022-09-12T11:14:29.176Z,4.7
2022-09-12T11:15:37.570Z,4.7
2022-09-12T11:16:45.834Z,4.7
2022-09-12T11:17:54.349Z,4.8
2022-09-12T11:19:02.666Z,4.8
2022-09-12T11:20:11.085Z,4.8
2022-09-12T11:21:19.551Z,4.9
2022-09-12T11:22:31.674Z,4.9
2022-09-12T11:23:36.250Z,4.9
2022-09-12T11:24:44.728Z,4.8
2022-09-12T11:25:53.066Z,4.8
2022-09-12T11:27:01.385Z,4.8
2022-09-12T11:28:09.950Z,4.3
2022-09-12T11:29:18.292Z,4.3
2022-09-12T11:30:26.624Z,4.3
2022-09-12T11:31:35.164Z,4.2
2022-09-12T11:32:43.529Z,4.2
2022-09-12T11:33:55.054Z,4.2
2022-09-12T11:35:00.371Z,3.6
2022-09-12T11:36:08.692Z,3.6
2022-09-12T11:37:18.134Z,3.6
2022-09-12T11:38:25.546Z,3.5
2022-09-12T11:39:33.873Z,3.5
2022-09-12T11:40:42.196Z,3.5
2022-09-12T11:41:50.745Z,3.2
2022-09-12T11:42:59.069Z,3.2
2022-09-12T11:44:07.383Z,3.2
2022-09-12T11:45:15.906Z,3.3
2022-09-12T11:46:24.283Z,3.3
2022-09-12T11:47:32.559Z,3.3
2022-09-12T11:48:41.110Z,3.8
2022-09-12T11:49:49.410Z,3.8
2022-09-12T11:50:57.727Z,3.8
2022-09-12T11:52:06.256Z,4.1
2022-09-12T11:53:14.602Z,4.1
2022-09-12T11:54:22.925Z,4.1
2022-09-12T11:55:31.439Z,3.5
2022-09-12T11:56:39.760Z,3.5
2022-09-12T11:57:48.095Z,3.5
2022-09-12T11:58:56.632Z,3.2
2022-09-12T12:00:04.944Z,3.2
2022-09-12T12:01:13.255Z,3.2
2022-09-12T12:02:21.844Z,3.3
2022-09-12T12:03:30.182Z,3.3
2022-09-12T12:04:38.482Z,3.3
2022-09-12T12:05:46.984Z,3.3
2022-09-12T12:06:55.303Z,3.3
2022-09-12T12:08:03.626Z,3.3
2022-09-12T12:09:12.164Z,3.1
2022-09-12T12:10:20.485Z,3.1
2022-09-12T12:11:28.787Z,3.1
2022-09-12T12:12:37.343Z,3.2
2022-09-12T12:13:45.651Z,3.2
2022-09-12T12:14:53.978Z,3.2
2022-09-12T12:16:02.573Z,2.5
2022-09-12T12:17:10.827Z,2.5
2022-09-12T12:18:19.152Z,2.5
2022-09-12T12:19:27.722Z,3.1
2022-09-12T12:20:36.079Z,3.1
2022-09-12T12:21:44.394Z,3.1
2022-09-12T12:22:52.930Z,2.6
2022-09-12T12:24:01.277Z,2.6
2022-09-12T12:25:09.614Z,2.6
2022-09-12T12:26:18.157Z,2.8
2022-09-12T12:27:26.475Z,2.8
2022-09-12T12:28:35.035Z,2.8
2022-09-12T12:29:44.224Z,3.5
2022-09-12T12:30:51.681Z,3.5
2022-09-12T12:32:00.008Z,3.5
2022-09-12T12:33:08.557Z,3.1
2022-09-12T12:34:16.865Z,3.1
2022-09-12T12:35:25.177Z,3.1
2022-09-12T12:36:33.759Z,3.7
2022-09-12T12:37:42.061Z,3.7
2022-09-12T12:38:50.379Z,3.7
2022-09-12T12:39:58.977Z,3.3
2022-09-12T12:41:07.240Z,3.3
2022-09-12T12:42:18.815Z,3.3
2022-09-12T12:43:24.095Z,2.9
2022-09-12T12:44:32.414Z,2.9
2022-09-12T12:45:40.736Z,2.9
2022-09-12T12:46:49.262Z,2.6
2022-09-12T12:47:57.583Z,2.6
2022-09-12T12:49:05.924Z,2.6
2022-09-12T12:50:14.432Z,2.6
2022-09-12T12:51:22.749Z,2.6
2022-09-12T12:52:31.101Z,2.6
2022-09-12T12:53:39.625Z,2.5
2022-09-12T12:54:47.934Z,2.5
2022-09-12T12:55:56.242Z,2.5
2022-09-12T12:57:04.783Z,2.4
2022-09-12T12:58:13.105Z,2.4
2022-09-12T12:59:21.477Z,2.4
2022-09-12T13:00:30.132Z,2.3
2022-09-12T13:01:38.426Z,2.3
2022-09-12T13:02:46.808Z,2.3
2022-09-12T13:03:55.290Z,2.2
2022-09-12T13:05:03.613Z,2.2
2022-09-12T13:06:11.940Z,2.2
2022-09-12T13:07:20.466Z,2.4
2022-09-12T13:08:28.826Z,2.4
2022-09-12T13:09:37.125Z,2.4
2022-09-12T13:10:48.417Z,2.8
2022-09-12T13:11:53.960Z,2.8
2022-09-12T13:13:02.303Z,2.8
2022-09-12T13:14:10.848Z,1.9
2022-09-12T13:15:19.191Z,1.9
2022-09-12T13:16:27.499Z,1.9
2022-09-12T13:17:36.024Z,2.5
2022-09-12T13:18:44.350Z,2.5
2022-09-12T13:20:05.374Z,2.5
2022-09-12T13:21:01.218Z,2.7
2022-09-12T13:22:09.525Z,2.7
2022-09-12T13:23:17.854Z,2.7
2022-09-12T13:24:26.403Z,3.1
2022-09-12T13:25:34.697Z,3.1
2022-09-12T13:26:43.033Z,3.1
2022-09-12T13:27:51.562Z,2.8
2022-09-12T13:28:59.878Z,2.8
2022-09-12T13:30:08.202Z,2.8
2022-09-12T13:31:16.811Z,3.1
2022-09-12T13:32:25.071Z,3.1
2022-09-12T13:33:33.401Z,3.1
2022-09-12T13:34:41.945Z,2.8
2022-09-12T13:35:50.391Z,2.8
2022-09-12T13:36:58.708Z,2.8
2022-09-12T13:38:07.247Z,2.4
2022-09-12T13:39:15.601Z,2.4
2022-09-12T13:40:23.979Z,2.4
2022-09-12T13:41:32.447Z,2.4
2022-09-12T13:42:40.771Z,2.4
2022-09-12T13:43:49.095Z,2.4
2022-09-12T13:44:57.626Z,2.4
2022-09-12T13:46:05.966Z,2.4
2022-09-12T13:47:14.244Z,2.4
2022-09-12T13:48:22.782Z,2.9
2022-09-12T13:49:31.117Z,2.9
2022-09-12T13:50:39.451Z,2.9
2022-09-12T13:51:47.983Z,2.3
2022-09-12T13:52:56.286Z,2.3
2022-09-12T13:54:04.612Z,2.3
2022-09-12T13:55:13.132Z,2.7
2022-09-12T13:56:21.488Z,2.7
2022-09-12T13:57:29.787Z,2.7
2022-09-12T13:58:38.320Z,2.2
2022-09-12T13:59:46.702Z,2.2
2022-09-12T14:00:55.010Z,2.2
2022-09-12T14:02:03.597Z,2.5
2022-09-12T14:03:11.866Z,2.5
2022-09-12T14:04:20.204Z,2.5
2022-09-12T14:05:28.727Z,2.1
2022-09-12T14:06:37.128Z,2.1
2022-09-12T14:07:45.452Z,2.1
2022-09-12T14:08:53.997Z,2.2
2022-09-12T14:10:02.383Z,2.2
2022-09-12T14:11:10.703Z,2.2
2022-09-12T14:12:19.244Z,2.4
2022-09-12T14:13:27.552Z,2.4
2022-09-12T14:14:35.883Z,2.4
2022-09-12T14:15:44.483Z,2.9
2022-09-12T14:16:52.737Z,2.9
2022-09-12T14:18:01.055Z,2.9
2022-09-12T14:19:09.589Z,2.5
2022-09-12T14:20:17.906Z,2.5
2022-09-12T14:21:26.240Z,2.5
2022-09-12T14:22:34.753Z,2.4
2022-09-12T14:23:43.080Z,2.4
2022-09-12T14:24:51.414Z,2.4
2022-09-12T14:25:59.938Z,2.4
2022-09-12T14:27:08.263Z,2.4
2022-09-12T14:28:19.289Z,2.4
2022-09-12T14:29:25.106Z,2.3
2022-09-12T15:03:15.952Z,0
2022-09-12T15:04:24.268Z,0
2022-09-12T15:05:32.578Z,0
2022-09-12T15:06:41.102Z,2.4
2022-09-12T15:07:49.421Z,2.4
2022-09-12T15:08:57.756Z,2.4
2022-09-12T15:10:06.288Z,2.2
2022-09-12T15:11:14.604Z,2.2
2022-09-12T15:12:22.924Z,2.2
2022-09-12T15:13:31.456Z,2.3
2022-09-12T15:14:39.777Z,2.3
2022-09-12T15:15:48.121Z,2.3
2022-09-12T15:16:56.630Z,2.2
2022-09-12T15:18:06.679Z,2.2
2022-09-12T15:19:13.303Z,2.2
2022-09-12T15:20:22.420Z,2.4
2022-09-12T15:21:30.724Z,2.4
2022-09-12T15:22:39.387Z,2.4
2022-09-12T15:23:47.964Z,2.2
2022-09-12T15:24:56.164Z,2.2
2022-09-12T15:26:04.499Z,2.2
2022-09-12T15:27:13.020Z,2.4
2022-09-12T15:28:21.366Z,2.4
2022-09-12T15:29:30.380Z,2.4
2022-09-12T15:30:38.921Z,2.4
2022-09-12T15:31:47.237Z,2.4
2022-09-12T15:32:55.578Z,2.4
2022-09-12T15:34:04.130Z,2
2022-09-12T15:35:12.502Z,2
2022-09-12T15:36:20.797Z,2
2022-09-12T15:37:29.338Z,1.8
2022-09-12T15:38:37.676Z,1.8
2022-09-12T15:39:46.109Z,1.8
2022-09-12T15:40:54.575Z,1.9
2022-09-12T15:42:02.941Z,1.9
2022-09-12T15:43:11.258Z,1.9
2022-09-12T15:44:19.789Z,1.8
2022-09-12T15:45:28.124Z,1.8
2022-09-12T15:46:36.538Z,1.8
2022-09-12T15:47:45.023Z,2
2022-09-12T15:48:53.337Z,2
2022-09-12T15:50:01.697Z,2
2022-09-12T15:51:13.444Z,1.8
2022-09-12T15:52:18.607Z,1.8
2022-09-12T15:53:26.948Z,1.8
2022-09-12T15:54:35.479Z,1.8
2022-09-12T15:55:43.822Z,1.8
2022-09-12T15:56:52.142Z,1.8
2022-09-12T15:58:03.663Z,2
2022-09-12T15:59:09.015Z,2
2022-09-12T16:00:17.345Z,2